sensor_id;sensor_type;location;lat;lon;timestamp;P1;durP1;ratioP1;P2;durP2;ratioP2
4311;SDS011;2169;49.086;9.284;2023-06-10T00:00:03;4.00;;;3.27;;
4311;SDS011;2169;49.086;9.284;2023-06-10T00:02:32;3.03;;;2.27;;
4311;SDS011;2169;49.086;9.284;2023-06-10T00:04:58;2.10;;;2.00;;
4311;SDS011;2169;49.086;9.284;2023-06-10T00:07:25;3.00;;;2.50;;
4311;SDS011;2169;49.086;9.284;2023-06-10T00:09:52;5.43;;;2.63;;
4311;SDS011;2169;49.086;9.284;2023-06-10T00:12:20;8.77;;;2.73;;
4311;SDS011;2169;49.086;9.284;2023-06-10T00:14:47;3.07;;;2.10;;
4311;SDS011;2169;49.086;9.284;2023-06-10T00:17:16;4.10;;;2.37;;
4311;SDS011;2169;49.086;9.284;2023-06-10T00:19:43;2.30;;;2.10;;
4311;SDS011;2169;49.086;9.284;2023-06-10T00:22:11;2.00;;;1.90;;
4311;SDS011;2169;49.086;9.284;2023-06-10T00:24:39;1.77;;;1.67;;
4311;SDS011;2169;49.086;9.284;2023-06-10T00:27:07;2.30;;;2.20;;
4311;SDS011;2169;49.086;9.284;2023-06-10T00:29:33;3.47;;;2.60;;
4311;SDS011;2169;49.086;9.284;2023-06-10T00:32:00;4.77;;;2.60;;
4311;SDS011;2169;49.086;9.284;2023-06-10T00:34:28;2.03;;;1.93;;
4311;SDS011;2169;49.086;9.284;2023-06-10T00:36:55;3.30;;;2.50;;
4311;SDS011;2169;49.086;9.284;2023-06-10T00:39:22;2.30;;;2.10;;
4311;SDS011;2169;49.086;9.284;2023-06-10T00:41:48;2.77;;;2.50;;
4311;SDS011;2169;49.086;9.284;2023-06-10T00:44:15;3.10;;;2.50;;
4311;SDS011;2169;49.086;9.284;2023-06-10T00:46:42;2.17;;;2.00;;
4311;SDS011;2169;49.086;9.284;2023-06-10T00:49:09;2.47;;;2.27;;
4311;SDS011;2169;49.086;9.284;2023-06-10T00:51:37;1.90;;;1.80;;
4311;SDS011;2169;49.086;9.284;2023-06-10T00:54:05;2.80;;;2.00;;
4311;SDS011;2169;49.086;9.284;2023-06-10T00:56:33;4.20;;;1.57;;
4311;SDS011;2169;49.086;9.284;2023-06-10T00:59:00;2.37;;;2.27;;
4311;SDS011;2169;49.086;9.284;2023-06-10T01:01:28;1.90;;;1.80;;
4311;SDS011;2169;49.086;9.284;2023-06-10T01:03:55;2.23;;;2.03;;
4311;SDS011;2169;49.086;9.284;2023-06-10T01:06:24;1.90;;;1.80;;
4311;SDS011;2169;49.086;9.284;2023-06-10T01:09:02;2.00;;;1.50;;
4311;SDS011;2169;49.086;9.284;2023-06-10T01:11:34;1.80;;;1.70;;
4311;SDS011;2169;49.086;9.284;2023-06-10T01:14:02;1.50;;;1.30;;
4311;SDS011;2169;49.086;9.284;2023-06-10T01:16:32;1.50;;;1.40;;
4311;SDS011;2169;49.086;9.284;2023-06-10T01:19:01;2.83;;;1.97;;
4311;SDS011;2169;49.086;9.284;2023-06-10T01:21:29;2.20;;;2.07;;
4311;SDS011;2169;49.086;9.284;2023-06-10T01:23:56;1.73;;;1.60;;
4311;SDS011;2169;49.086;9.284;2023-06-10T01:26:25;1.93;;;1.83;;
4311;SDS011;2169;49.086;9.284;2023-06-10T01:28:57;2.80;;;2.60;;
4311;SDS011;2169;49.086;9.284;2023-06-10T01:31:30;5.07;;;2.53;;
4311;SDS011;2169;49.086;9.284;2023-06-10T01:34:03;6.20;;;2.50;;
4311;SDS011;2169;49.086;9.284;2023-06-10T01:36:34;4.53;;;2.10;;
4311;SDS011;2169;49.086;9.284;2023-06-10T01:39:02;3.93;;;2.40;;
4311;SDS011;2169;49.086;9.284;2023-06-10T01:41:31;3.10;;;2.63;;
4311;SDS011;2169;49.086;9.284;2023-06-10T01:43:58;3.43;;;2.60;;
4311;SDS011;2169;49.086;9.284;2023-06-10T01:46:25;2.27;;;2.07;;
4311;SDS011;2169;49.086;9.284;2023-06-10T01:48:52;17.17;;;3.07;;
4311;SDS011;2169;49.086;9.284;2023-06-10T01:51:18;2.97;;;2.67;;
4311;SDS011;2169;49.086;9.284;2023-06-10T01:53:47;2.40;;;2.20;;
4311;SDS011;2169;49.086;9.284;2023-06-10T01:56:13;3.40;;;2.63;;
4311;SDS011;2169;49.086;9.284;2023-06-10T01:58:43;3.00;;;2.50;;
4311;SDS011;2169;49.086;9.284;2023-06-10T02:01:10;13.30;;;2.80;;
4311;SDS011;2169;49.086;9.284;2023-06-10T02:03:37;1.40;;;1.30;;
4311;SDS011;2169;49.086;9.284;2023-06-10T02:06:03;1.80;;;1.70;;
4311;SDS011;2169;49.086;9.284;2023-06-10T02:08:30;2.57;;;2.37;;
4311;SDS011;2169;49.086;9.284;2023-06-10T02:10:58;5.77;;;2.77;;
4311;SDS011;2169;49.086;9.284;2023-06-10T02:13:25;2.27;;;2.17;;
4311;SDS011;2169;49.086;9.284;2023-06-10T02:15:52;2.80;;;2.60;;
4311;SDS011;2169;49.086;9.284;2023-06-10T02:18:19;3.27;;;3.00;;
4311;SDS011;2169;49.086;9.284;2023-06-10T02:20:47;3.00;;;2.80;;
4311;SDS011;2169;49.086;9.284;2023-06-10T02:23:13;9.70;;;2.73;;
4311;SDS011;2169;49.086;9.284;2023-06-10T02:25:40;2.53;;;2.33;;
4311;SDS011;2169;49.086;9.284;2023-06-10T02:28:08;3.47;;;2.80;;
4311;SDS011;2169;49.086;9.284;2023-06-10T02:30:35;3.00;;;2.37;;
4311;SDS011;2169;49.086;9.284;2023-06-10T02:33:04;8.33;;;2.47;;
4311;SDS011;2169;49.086;9.284;2023-06-10T02:35:34;3.13;;;2.93;;
4311;SDS011;2169;49.086;9.284;2023-06-10T02:38:01;2.27;;;2.17;;
4311;SDS011;2169;49.086;9.284;2023-06-10T02:40:29;2.77;;;2.60;;
4311;SDS011;2169;49.086;9.284;2023-06-10T02:42:55;3.60;;;2.00;;
4311;SDS011;2169;49.086;9.284;2023-06-10T02:45:24;2.60;;;2.40;;
4311;SDS011;2169;49.086;9.284;2023-06-10T02:47:51;2.73;;;2.30;;
4311;SDS011;2169;49.086;9.284;2023-06-10T02:50:17;3.00;;;2.70;;
4311;SDS011;2169;49.086;9.284;2023-06-10T02:52:44;2.80;;;2.60;;
4311;SDS011;2169;49.086;9.284;2023-06-10T02:55:11;3.10;;;2.30;;
4311;SDS011;2169;49.086;9.284;2023-06-10T02:57:38;4.83;;;2.10;;
4311;SDS011;2169;49.086;9.284;2023-06-10T03:00:06;2.47;;;2.27;;
4311;SDS011;2169;49.086;9.284;2023-06-10T03:02:37;3.47;;;3.17;;
4311;SDS011;2169;49.086;9.284;2023-06-10T03:05:04;5.13;;;2.43;;
4311;SDS011;2169;49.086;9.284;2023-06-10T03:07:34;3.30;;;2.53;;
4311;SDS011;2169;49.086;9.284;2023-06-10T03:10:02;3.10;;;2.90;;
4311;SDS011;2169;49.086;9.284;2023-06-10T03:12:29;3.03;;;2.83;;
4311;SDS011;2169;49.086;9.284;2023-06-10T03:14:56;3.43;;;3.20;;
4311;SDS011;2169;49.086;9.284;2023-06-10T03:17:23;2.97;;;2.67;;
4311;SDS011;2169;49.086;9.284;2023-06-10T03:19:51;3.87;;;2.90;;
4311;SDS011;2169;49.086;9.284;2023-06-10T03:22:17;3.23;;;3.03;;
4311;SDS011;2169;49.086;9.284;2023-06-10T03:24:45;3.23;;;2.90;;
4311;SDS011;2169;49.086;9.284;2023-06-10T03:27:15;3.27;;;2.97;;
4311;SDS011;2169;49.086;9.284;2023-06-10T03:29:42;2.33;;;2.23;;
4311;SDS011;2169;49.086;9.284;2023-06-10T03:32:09;3.67;;;3.10;;
4311;SDS011;2169;49.086;9.284;2023-06-10T03:34:36;3.43;;;3.23;;
4311;SDS011;2169;49.086;9.284;2023-06-10T03:37:05;5.23;;;3.50;;
4311;SDS011;2169;49.086;9.284;2023-06-10T03:39:32;3.23;;;2.97;;
4311;SDS011;2169;49.086;9.284;2023-06-10T03:41:59;4.20;;;3.83;;
4311;SDS011;2169;49.086;9.284;2023-06-10T03:44:26;2.93;;;2.67;;
4311;SDS011;2169;49.086;9.284;2023-06-10T03:46:52;3.20;;;3.00;;
4311;SDS011;2169;49.086;9.284;2023-06-10T03:49:19;7.90;;;3.03;;
4311;SDS011;2169;49.086;9.284;2023-06-10T03:51:52;4.20;;;3.87;;
4311;SDS011;2169;49.086;9.284;2023-06-10T03:54:20;4.13;;;3.13;;
4311;SDS011;2169;49.086;9.284;2023-06-10T03:56:46;3.17;;;2.80;;
4311;SDS011;2169;49.086;9.284;2023-06-10T03:59:13;3.50;;;3.30;;
4311;SDS011;2169;49.086;9.284;2023-06-10T04:01:40;3.00;;;2.80;;
4311;SDS011;2169;49.086;9.284;2023-06-10T04:04:08;2.90;;;2.70;;
4311;SDS011;2169;49.086;9.284;2023-06-10T04:06:35;2.93;;;2.73;;
4311;SDS011;2169;49.086;9.284;2023-06-10T04:09:03;4.17;;;3.87;;
4311;SDS011;2169;49.086;9.284;2023-06-10T04:11:31;4.30;;;2.97;;
4311;SDS011;2169;49.086;9.284;2023-06-10T04:13:58;5.10;;;3.60;;
4311;SDS011;2169;49.086;9.284;2023-06-10T04:16:24;3.50;;;3.20;;
4311;SDS011;2169;49.086;9.284;2023-06-10T04:18:51;3.70;;;3.43;;
4311;SDS011;2169;49.086;9.284;2023-06-10T04:21:18;3.67;;;3.47;;
4311;SDS011;2169;49.086;9.284;2023-06-10T04:23:45;8.53;;;3.53;;
4311;SDS011;2169;49.086;9.284;2023-06-10T04:26:12;3.73;;;3.10;;
4311;SDS011;2169;49.086;9.284;2023-06-10T04:28:40;4.57;;;3.30;;
4311;SDS011;2169;49.086;9.284;2023-06-10T04:31:08;4.83;;;3.70;;
4311;SDS011;2169;49.086;9.284;2023-06-10T04:33:35;3.37;;;3.07;;
4311;SDS011;2169;49.086;9.284;2023-06-10T04:36:02;9.20;;;3.80;;
4311;SDS011;2169;49.086;9.284;2023-06-10T04:38:31;4.67;;;3.43;;
4311;SDS011;2169;49.086;9.284;2023-06-10T04:40:58;3.93;;;3.43;;
4311;SDS011;2169;49.086;9.284;2023-06-10T04:43:25;5.93;;;3.60;;
4311;SDS011;2169;49.086;9.284;2023-06-10T04:45:54;5.50;;;5.03;;
4311;SDS011;2169;49.086;9.284;2023-06-10T04:48:21;3.90;;;3.60;;
4311;SDS011;2169;49.086;9.284;2023-06-10T04:50:49;2.97;;;2.67;;
4311;SDS011;2169;49.086;9.284;2023-06-10T04:53:16;4.97;;;3.40;;
4311;SDS011;2169;49.086;9.284;2023-06-10T04:55:43;4.20;;;2.80;;
4311;SDS011;2169;49.086;9.284;2023-06-10T04:58:10;4.17;;;3.77;;
4311;SDS011;2169;49.086;9.284;2023-06-10T05:00:37;4.90;;;3.03;;
4311;SDS011;2169;49.086;9.284;2023-06-10T05:03:05;3.30;;;3.10;;
4311;SDS011;2169;49.086;9.284;2023-06-10T05:05:32;8.07;;;4.57;;
4311;SDS011;2169;49.086;9.284;2023-06-10T05:07:58;11.27;;;4.50;;
4311;SDS011;2169;49.086;9.284;2023-06-10T05:10:25;4.67;;;3.07;;
4311;SDS011;2169;49.086;9.284;2023-06-10T05:12:52;5.23;;;3.70;;
4311;SDS011;2169;49.086;9.284;2023-06-10T05:15:18;3.90;;;2.90;;
4311;SDS011;2169;49.086;9.284;2023-06-10T05:17:45;3.07;;;2.70;;
4311;SDS011;2169;49.086;9.284;2023-06-10T05:20:13;3.60;;;2.97;;
4311;SDS011;2169;49.086;9.284;2023-06-10T05:22:40;4.20;;;3.80;;
4311;SDS011;2169;49.086;9.284;2023-06-10T05:25:07;3.07;;;2.77;;
4311;SDS011;2169;49.086;9.284;2023-06-10T05:27:34;6.07;;;3.30;;
4311;SDS011;2169;49.086;9.284;2023-06-10T05:30:02;3.90;;;2.70;;
4311;SDS011;2169;49.086;9.284;2023-06-10T05:32:29;3.13;;;2.93;;
4311;SDS011;2169;49.086;9.284;2023-06-10T05:34:56;3.03;;;2.83;;
4311;SDS011;2169;49.086;9.284;2023-06-10T05:37:26;5.10;;;3.50;;
4311;SDS011;2169;49.086;9.284;2023-06-10T05:39:53;4.23;;;2.73;;
4311;SDS011;2169;49.086;9.284;2023-06-10T05:42:19;3.40;;;2.60;;
4311;SDS011;2169;49.086;9.284;2023-06-10T05:44:46;3.50;;;3.30;;
4311;SDS011;2169;49.086;9.284;2023-06-10T05:47:13;4.23;;;2.93;;
4311;SDS011;2169;49.086;9.284;2023-06-10T05:49:40;3.83;;;3.53;;
4311;SDS011;2169;49.086;9.284;2023-06-10T05:52:06;3.90;;;3.60;;
4311;SDS011;2169;49.086;9.284;2023-06-10T05:54:35;4.80;;;3.83;;
4311;SDS011;2169;49.086;9.284;2023-06-10T05:57:01;3.97;;;3.67;;
4311;SDS011;2169;49.086;9.284;2023-06-10T05:59:30;2.53;;;2.30;;
4311;SDS011;2169;49.086;9.284;2023-06-10T06:01:57;3.40;;;3.20;;
4311;SDS011;2169;49.086;9.284;2023-06-10T06:04:24;3.90;;;3.60;;
4311;SDS011;2169;49.086;9.284;2023-06-10T06:06:51;7.13;;;4.40;;
4311;SDS011;2169;49.086;9.284;2023-06-10T06:09:18;13.03;;;4.73;;
4311;SDS011;2169;49.086;9.284;2023-06-10T06:11:46;3.57;;;3.37;;
4311;SDS011;2169;49.086;9.284;2023-06-10T06:14:13;4.17;;;3.83;;
4311;SDS011;2169;49.086;9.284;2023-06-10T06:16:40;3.83;;;3.53;;
4311;SDS011;2169;49.086;9.284;2023-06-10T06:19:06;4.20;;;3.00;;
4311;SDS011;2169;49.086;9.284;2023-06-10T06:21:34;4.50;;;3.80;;
4311;SDS011;2169;49.086;9.284;2023-06-10T06:24:01;3.00;;;2.80;;
4311;SDS011;2169;49.086;9.284;2023-06-10T06:26:27;8.33;;;4.37;;
4311;SDS011;2169;49.086;9.284;2023-06-10T06:28:56;4.17;;;3.20;;
4311;SDS011;2169;49.086;9.284;2023-06-10T06:31:22;9.23;;;3.33;;
4311;SDS011;2169;49.086;9.284;2023-06-10T06:33:49;3.13;;;2.77;;
4311;SDS011;2169;49.086;9.284;2023-06-10T06:36:16;3.67;;;3.13;;
4311;SDS011;2169;49.086;9.284;2023-06-10T06:38:42;3.93;;;2.70;;
4311;SDS011;2169;49.086;9.284;2023-06-10T06:41:09;3.10;;;2.80;;
4311;SDS011;2169;49.086;9.284;2023-06-10T06:43:36;3.20;;;2.90;;
4311;SDS011;2169;49.086;9.284;2023-06-10T06:46:05;2.93;;;2.73;;
4311;SDS011;2169;49.086;9.284;2023-06-10T06:48:31;4.80;;;2.50;;
4311;SDS011;2169;49.086;9.284;2023-06-10T06:50:58;3.80;;;3.50;;
4311;SDS011;2169;49.086;9.284;2023-06-10T06:53:25;5.30;;;3.03;;
4311;SDS011;2169;49.086;9.284;2023-06-10T06:55:51;2.70;;;2.50;;
4311;SDS011;2169;49.086;9.284;2023-06-10T06:58:18;4.60;;;3.33;;
4311;SDS011;2169;49.086;9.284;2023-06-10T07:00:45;5.10;;;2.80;;
4311;SDS011;2169;49.086;9.284;2023-06-10T07:03:13;2.20;;;2.10;;
4311;SDS011;2169;49.086;9.284;2023-06-10T07:05:40;3.13;;;2.97;;
4311;SDS011;2169;49.086;9.284;2023-06-10T07:08:07;3.10;;;2.83;;
4311;SDS011;2169;49.086;9.284;2023-06-10T07:10:34;4.80;;;2.77;;
4311;SDS011;2169;49.086;9.284;2023-06-10T07:13:00;3.50;;;3.30;;
4311;SDS011;2169;49.086;9.284;2023-06-10T07:15:27;3.47;;;2.57;;
4311;SDS011;2169;49.086;9.284;2023-06-10T07:17:54;6.07;;;3.73;;
4311;SDS011;2169;49.086;9.284;2023-06-10T07:20:22;3.00;;;2.80;;
4311;SDS011;2169;49.086;9.284;2023-06-10T07:22:49;3.60;;;3.30;;
4311;SDS011;2169;49.086;9.284;2023-06-10T07:25:16;6.27;;;3.97;;
4311;SDS011;2169;49.086;9.284;2023-06-10T07:27:43;1.90;;;1.80;;
4311;SDS011;2169;49.086;9.284;2023-06-10T07:30:10;3.23;;;3.03;;
4311;SDS011;2169;49.086;9.284;2023-06-10T07:32:37;3.40;;;3.10;;
4311;SDS011;2169;49.086;9.284;2023-06-10T07:35:06;3.17;;;2.50;;
4311;SDS011;2169;49.086;9.284;2023-06-10T07:37:35;4.43;;;3.10;;
4311;SDS011;2169;49.086;9.284;2023-06-10T07:40:02;3.23;;;3.03;;
4311;SDS011;2169;49.086;9.284;2023-06-10T07:42:30;2.77;;;2.60;;
4311;SDS011;2169;49.086;9.284;2023-06-10T07:44:58;2.73;;;2.53;;
4311;SDS011;2169;49.086;9.284;2023-06-10T07:47:24;3.30;;;3.10;;
4311;SDS011;2169;49.086;9.284;2023-06-10T07:49:51;3.33;;;3.03;;
4311;SDS011;2169;49.086;9.284;2023-06-10T07:52:18;4.37;;;3.33;;
4311;SDS011;2169;49.086;9.284;2023-06-10T07:54:46;4.97;;;3.57;;
4311;SDS011;2169;49.086;9.284;2023-06-10T07:57:13;4.03;;;2.90;;
4311;SDS011;2169;49.086;9.284;2023-06-10T07:59:40;2.90;;;2.70;;
4311;SDS011;2169;49.086;9.284;2023-06-10T08:02:06;3.33;;;2.87;;
4311;SDS011;2169;49.086;9.284;2023-06-10T08:04:33;4.40;;;2.83;;
4311;SDS011;2169;49.086;9.284;2023-06-10T08:07:00;2.80;;;2.60;;
4311;SDS011;2169;49.086;9.284;2023-06-10T08:09:28;4.53;;;3.47;;
4311;SDS011;2169;49.086;9.284;2023-06-10T08:11:56;3.77;;;3.47;;
4311;SDS011;2169;49.086;9.284;2023-06-10T08:14:23;4.37;;;3.93;;
4311;SDS011;2169;49.086;9.284;2023-06-10T08:16:49;4.87;;;3.23;;
4311;SDS011;2169;49.086;9.284;2023-06-10T08:19:16;3.47;;;3.20;;
4311;SDS011;2169;49.086;9.284;2023-06-10T08:21:43;3.13;;;2.77;;
4311;SDS011;2169;49.086;9.284;2023-06-10T08:24:10;2.87;;;2.67;;
4311;SDS011;2169;49.086;9.284;2023-06-10T08:26:39;6.43;;;2.30;;
4311;SDS011;2169;49.086;9.284;2023-06-10T08:29:07;5.43;;;2.20;;
4311;SDS011;2169;49.086;9.284;2023-06-10T08:31:34;2.70;;;2.50;;
4311;SDS011;2169;49.086;9.284;2023-06-10T08:34:01;4.20;;;3.23;;
4311;SDS011;2169;49.086;9.284;2023-06-10T08:36:27;4.70;;;4.30;;
4311;SDS011;2169;49.086;9.284;2023-06-10T08:38:54;6.40;;;3.57;;
4311;SDS011;2169;49.086;9.284;2023-06-10T08:41:21;3.47;;;2.53;;
4311;SDS011;2169;49.086;9.284;2023-06-10T08:43:53;5.37;;;3.17;;
4311;SDS011;2169;49.086;9.284;2023-06-10T08:46:27;4.60;;;3.23;;
4311;SDS011;2169;49.086;9.284;2023-06-10T08:48:57;3.53;;;3.23;;
4311;SDS011;2169;49.086;9.284;2023-06-10T08:51:28;3.83;;;3.60;;
4311;SDS011;2169;49.086;9.284;2023-06-10T08:53:59;2.67;;;2.57;;
4311;SDS011;2169;49.086;9.284;2023-06-10T08:56:28;2.37;;;2.27;;
4311;SDS011;2169;49.086;9.284;2023-06-10T08:58:57;3.20;;;3.00;;
4311;SDS011;2169;49.086;9.284;2023-06-10T09:01:26;3.27;;;3.00;;
4311;SDS011;2169;49.086;9.284;2023-06-10T09:03:53;3.23;;;3.03;;
4311;SDS011;2169;49.086;9.284;2023-06-10T09:06:21;3.83;;;3.27;;
4311;SDS011;2169;49.086;9.284;2023-06-10T09:08:48;3.30;;;3.10;;
4311;SDS011;2169;49.086;9.284;2023-06-10T09:11:16;4.63;;;3.13;;
4311;SDS011;2169;49.086;9.284;2023-06-10T09:13:42;7.53;;;2.60;;
4311;SDS011;2169;49.086;9.284;2023-06-10T09:16:09;3.47;;;3.27;;
4311;SDS011;2169;49.086;9.284;2023-06-10T09:18:39;5.03;;;2.90;;
4311;SDS011;2169;49.086;9.284;2023-06-10T09:21:06;3.90;;;3.50;;
4311;SDS011;2169;49.086;9.284;2023-06-10T09:23:32;3.80;;;3.50;;
4311;SDS011;2169;49.086;9.284;2023-06-10T09:26:00;3.93;;;3.63;;
4311;SDS011;2169;49.086;9.284;2023-06-10T09:28:29;3.83;;;3.53;;
4311;SDS011;2169;49.086;9.284;2023-06-10T09:31:02;4.80;;;2.90;;
4311;SDS011;2169;49.086;9.284;2023-06-10T09:33:30;3.67;;;2.43;;
4311;SDS011;2169;49.086;9.284;2023-06-10T09:35:59;4.17;;;3.27;;
4311;SDS011;2169;49.086;9.284;2023-06-10T09:38:31;2.93;;;2.73;;
4311;SDS011;2169;49.086;9.284;2023-06-10T09:40:59;2.87;;;2.67;;
4311;SDS011;2169;49.086;9.284;2023-06-10T09:43:38;3.40;;;2.97;;
4311;SDS011;2169;49.086;9.284;2023-06-10T09:46:15;5.13;;;2.60;;
4311;SDS011;2169;49.086;9.284;2023-06-10T09:48:42;3.07;;;2.90;;
4311;SDS011;2169;49.086;9.284;2023-06-10T09:51:11;3.20;;;3.00;;
4311;SDS011;2169;49.086;9.284;2023-06-10T09:53:38;4.77;;;3.73;;
4311;SDS011;2169;49.086;9.284;2023-06-10T09:56:06;3.47;;;2.27;;
4311;SDS011;2169;49.086;9.284;2023-06-10T09:58:36;2.13;;;2.03;;
4311;SDS011;2169;49.086;9.284;2023-06-10T10:01:04;3.07;;;2.77;;
4311;SDS011;2169;49.086;9.284;2023-06-10T10:03:31;3.20;;;2.30;;
4311;SDS011;2169;49.086;9.284;2023-06-10T10:05:58;3.50;;;2.10;;
4311;SDS011;2169;49.086;9.284;2023-06-10T10:08:27;3.90;;;2.90;;
4311;SDS011;2169;49.086;9.284;2023-06-10T10:10:55;2.90;;;2.70;;
4311;SDS011;2169;49.086;9.284;2023-06-10T10:13:23;2.20;;;2.10;;
4311;SDS011;2169;49.086;9.284;2023-06-10T10:15:51;3.07;;;2.20;;
4311;SDS011;2169;49.086;9.284;2023-06-10T10:18:19;2.93;;;2.40;;
4311;SDS011;2169;49.086;9.284;2023-06-10T10:20:53;3.50;;;2.17;;
4311;SDS011;2169;49.086;9.284;2023-06-10T10:23:21;2.60;;;2.40;;
4311;SDS011;2169;49.086;9.284;2023-06-10T10:25:53;2.10;;;1.90;;
4311;SDS011;2169;49.086;9.284;2023-06-10T10:28:21;3.17;;;2.87;;
4311;SDS011;2169;49.086;9.284;2023-06-10T10:30:52;3.63;;;3.23;;
4311;SDS011;2169;49.086;9.284;2023-06-10T10:33:25;5.40;;;3.33;;
4311;SDS011;2169;49.086;9.284;2023-06-10T10:35:57;3.23;;;2.93;;
4311;SDS011;2169;49.086;9.284;2023-06-10T10:38:24;3.90;;;3.50;;
4311;SDS011;2169;49.086;9.284;2023-06-10T10:40:53;3.00;;;2.90;;
4311;SDS011;2169;49.086;9.284;2023-06-10T10:43:24;3.43;;;3.13;;
4311;SDS011;2169;49.086;9.284;2023-06-10T10:45:57;4.37;;;2.43;;
4311;SDS011;2169;49.086;9.284;2023-06-10T10:48:25;2.63;;;2.50;;
4311;SDS011;2169;49.086;9.284;2023-06-10T10:50:56;4.50;;;2.73;;
4311;SDS011;2169;49.086;9.284;2023-06-10T10:53:23;3.10;;;2.90;;
4311;SDS011;2169;49.086;9.284;2023-06-10T10:55:59;2.87;;;2.67;;
4311;SDS011;2169;49.086;9.284;2023-06-10T10:58:26;1.80;;;1.70;;
4311;SDS011;2169;49.086;9.284;2023-06-10T11:00:53;3.53;;;1.80;;
4311;SDS011;2169;49.086;9.284;2023-06-10T11:03:19;2.93;;;2.80;;
4311;SDS011;2169;49.086;9.284;2023-06-10T11:05:47;2.20;;;2.10;;
4311;SDS011;2169;49.086;9.284;2023-06-10T11:08:14;2.60;;;2.40;;
4311;SDS011;2169;49.086;9.284;2023-06-10T11:11:06;2.97;;;2.70;;
4311;SDS011;2169;49.086;9.284;2023-06-10T11:13:57;8.50;;;3.30;;
4311;SDS011;2169;49.086;9.284;2023-06-10T11:16:25;2.00;;;1.90;;
4311;SDS011;2169;49.086;9.284;2023-06-10T11:18:53;3.03;;;2.00;;
4311;SDS011;2169;49.086;9.284;2023-06-10T11:21:21;2.13;;;2.03;;
4311;SDS011;2169;49.086;9.284;2023-06-10T11:23:50;2.50;;;2.30;;
4311;SDS011;2169;49.086;9.284;2023-06-10T11:26:29;1.80;;;1.70;;
4311;SDS011;2169;49.086;9.284;2023-06-10T11:29:01;3.87;;;2.20;;
4311;SDS011;2169;49.086;9.284;2023-06-10T11:31:30;1.80;;;1.70;;
4311;SDS011;2169;49.086;9.284;2023-06-10T11:33:58;2.40;;;2.30;;
4311;SDS011;2169;49.086;9.284;2023-06-10T11:36:27;2.63;;;2.33;;
4311;SDS011;2169;49.086;9.284;2023-06-10T11:38:55;3.90;;;1.80;;
4311;SDS011;2169;49.086;9.284;2023-06-10T11:41:24;1.80;;;1.70;;
4311;SDS011;2169;49.086;9.284;2023-06-10T11:43:52;2.53;;;2.43;;
4311;SDS011;2169;49.086;9.284;2023-06-10T11:46:20;2.13;;;1.97;;
4311;SDS011;2169;49.086;9.284;2023-06-10T11:48:51;6.63;;;2.13;;
4311;SDS011;2169;49.086;9.284;2023-06-10T11:51:18;2.00;;;1.90;;
4311;SDS011;2169;49.086;9.284;2023-06-10T11:53:45;2.13;;;2.03;;
4311;SDS011;2169;49.086;9.284;2023-06-10T11:56:13;3.00;;;2.80;;
4311;SDS011;2169;49.086;9.284;2023-06-10T11:58:48;3.70;;;2.40;;
4311;SDS011;2169;49.086;9.284;2023-06-10T12:01:19;2.63;;;2.40;;
4311;SDS011;2169;49.086;9.284;2023-06-10T12:03:48;5.10;;;2.03;;
4311;SDS011;2169;49.086;9.284;2023-06-10T12:06:23;4.67;;;2.47;;
4311;SDS011;2169;49.086;9.284;2023-06-10T12:08:50;4.17;;;2.83;;
4311;SDS011;2169;49.086;9.284;2023-06-10T12:11:16;7.53;;;3.43;;
4311;SDS011;2169;49.086;9.284;2023-06-10T12:13:47;4.17;;;3.03;;
4311;SDS011;2169;49.086;9.284;2023-06-10T12:16:14;2.23;;;2.03;;
4311;SDS011;2169;49.086;9.284;2023-06-10T12:18:43;2.10;;;2.00;;
4311;SDS011;2169;49.086;9.284;2023-06-10T12:21:20;1.93;;;1.83;;
4311;SDS011;2169;49.086;9.284;2023-06-10T12:24:00;3.60;;;2.87;;
4311;SDS011;2169;49.086;9.284;2023-06-10T12:26:37;2.33;;;2.10;;
4311;SDS011;2169;49.086;9.284;2023-06-10T12:29:14;1.73;;;1.63;;
4311;SDS011;2169;49.086;9.284;2023-06-10T12:31:53;3.90;;;1.90;;
4311;SDS011;2169;49.086;9.284;2023-06-10T12:34:31;2.40;;;1.60;;
4311;SDS011;2169;49.086;9.284;2023-06-10T12:36:59;1.77;;;1.67;;
4311;SDS011;2169;49.086;9.284;2023-06-10T12:39:25;1.50;;;1.50;;
4311;SDS011;2169;49.086;9.284;2023-06-10T12:41:52;2.20;;;1.90;;
4311;SDS011;2169;49.086;9.284;2023-06-10T12:44:29;1.63;;;1.53;;
4311;SDS011;2169;49.086;9.284;2023-06-10T12:46:56;1.50;;;1.40;;
4311;SDS011;2169;49.086;9.284;2023-06-10T12:49:23;1.80;;;1.70;;
4311;SDS011;2169;49.086;9.284;2023-06-10T12:51:51;6.40;;;2.53;;
4311;SDS011;2169;49.086;9.284;2023-06-10T12:54:18;1.97;;;1.87;;
4311;SDS011;2169;49.086;9.284;2023-06-10T12:56:45;2.70;;;2.50;;
4311;SDS011;2169;49.086;9.284;2023-06-10T12:59:12;2.50;;;1.47;;
4311;SDS011;2169;49.086;9.284;2023-06-10T13:01:40;1.93;;;1.83;;
4311;SDS011;2169;49.086;9.284;2023-06-10T13:04:07;4.13;;;2.60;;
4311;SDS011;2169;49.086;9.284;2023-06-10T13:06:34;3.50;;;1.83;;
4311;SDS011;2169;49.086;9.284;2023-06-10T13:09:04;2.03;;;1.93;;
4311;SDS011;2169;49.086;9.284;2023-06-10T13:11:32;1.50;;;1.40;;
4311;SDS011;2169;49.086;9.284;2023-06-10T13:14:00;2.83;;;1.53;;
4311;SDS011;2169;49.086;9.284;2023-06-10T13:16:27;1.90;;;1.80;;
4311;SDS011;2169;49.086;9.284;2023-06-10T13:18:56;2.20;;;2.07;;
4311;SDS011;2169;49.086;9.284;2023-06-10T13:21:23;2.33;;;1.70;;
4311;SDS011;2169;49.086;9.284;2023-06-10T13:23:50;2.27;;;2.10;;
4311;SDS011;2169;49.086;9.284;2023-06-10T13:26:17;2.17;;;1.97;;
4311;SDS011;2169;49.086;9.284;2023-06-10T13:28:44;1.57;;;1.50;;
4311;SDS011;2169;49.086;9.284;2023-06-10T13:31:10;2.30;;;1.70;;
4311;SDS011;2169;49.086;9.284;2023-06-10T13:33:37;2.40;;;1.67;;
4311;SDS011;2169;49.086;9.284;2023-06-10T13:36:06;4.97;;;1.67;;
4311;SDS011;2169;49.086;9.284;2023-06-10T13:38:33;1.70;;;1.60;;
4311;SDS011;2169;49.086;9.284;2023-06-10T13:41:00;1.80;;;1.70;;
4311;SDS011;2169;49.086;9.284;2023-06-10T13:43:27;1.67;;;1.57;;
4311;SDS011;2169;49.086;9.284;2023-06-10T13:45:54;1.67;;;1.57;;
4311;SDS011;2169;49.086;9.284;2023-06-10T13:48:20;1.93;;;1.83;;
4311;SDS011;2169;49.086;9.284;2023-06-10T13:50:47;2.00;;;1.90;;
4311;SDS011;2169;49.086;9.284;2023-06-10T13:53:15;2.00;;;1.63;;
4311;SDS011;2169;49.086;9.284;2023-06-10T13:55:42;2.00;;;1.63;;
4311;SDS011;2169;49.086;9.284;2023-06-10T13:58:09;1.80;;;1.73;;
4311;SDS011;2169;49.086;9.284;2023-06-10T14:00:36;2.20;;;1.40;;
4311;SDS011;2169;49.086;9.284;2023-06-10T14:03:02;8.77;;;2.03;;
4311;SDS011;2169;49.086;9.284;2023-06-10T14:05:29;2.40;;;2.30;;
4311;SDS011;2169;49.086;9.284;2023-06-10T14:07:56;3.10;;;2.13;;
4311;SDS011;2169;49.086;9.284;2023-06-10T14:10:24;1.60;;;1.50;;
4311;SDS011;2169;49.086;9.284;2023-06-10T14:12:51;1.73;;;1.73;;
4311;SDS011;2169;49.086;9.284;2023-06-10T14:15:18;1.73;;;1.63;;
4311;SDS011;2169;49.086;9.284;2023-06-10T14:17:45;2.03;;;1.83;;
4311;SDS011;2169;49.086;9.284;2023-06-10T14:20:12;1.40;;;1.27;;
4311;SDS011;2169;49.086;9.284;2023-06-10T14:22:39;2.43;;;2.33;;
4311;SDS011;2169;49.086;9.284;2023-06-10T14:25:06;1.50;;;1.40;;
4311;SDS011;2169;49.086;9.284;2023-06-10T14:27:35;1.20;;;1.10;;
4311;SDS011;2169;49.086;9.284;2023-06-10T14:30:01;1.53;;;1.43;;
4311;SDS011;2169;49.086;9.284;2023-06-10T14:32:29;1.73;;;1.60;;
4311;SDS011;2169;49.086;9.284;2023-06-10T14:34:56;2.43;;;1.83;;
4311;SDS011;2169;49.086;9.284;2023-06-10T14:37:23;2.63;;;1.83;;
4311;SDS011;2169;49.086;9.284;2023-06-10T14:39:49;2.17;;;1.97;;
4311;SDS011;2169;49.086;9.284;2023-06-10T14:42:16;5.20;;;2.50;;
4311;SDS011;2169;49.086;9.284;2023-06-10T14:44:44;2.80;;;2.10;;
4311;SDS011;2169;49.086;9.284;2023-06-10T14:47:11;2.03;;;1.70;;
4311;SDS011;2169;49.086;9.284;2023-06-10T14:49:38;2.07;;;1.97;;
4311;SDS011;2169;49.086;9.284;2023-06-10T14:52:07;1.73;;;1.63;;
4311;SDS011;2169;49.086;9.284;2023-06-10T14:54:34;1.30;;;1.20;;
4311;SDS011;2169;49.086;9.284;2023-06-10T14:57:01;1.57;;;1.30;;
4311;SDS011;2169;49.086;9.284;2023-06-10T14:59:28;3.00;;;1.87;;
4311;SDS011;2169;49.086;9.284;2023-06-10T15:01:56;1.97;;;1.87;;
4311;SDS011;2169;49.086;9.284;2023-06-10T15:04:25;1.77;;;1.67;;
4311;SDS011;2169;49.086;9.284;2023-06-10T15:06:51;1.40;;;1.23;;
4311;SDS011;2169;49.086;9.284;2023-06-10T15:09:18;1.00;;;1.00;;
4311;SDS011;2169;49.086;9.284;2023-06-10T15:11:45;1.60;;;1.50;;
4311;SDS011;2169;49.086;9.284;2023-06-10T15:14:12;1.40;;;1.30;;
4311;SDS011;2169;49.086;9.284;2023-06-10T15:16:39;2.17;;;2.00;;
4311;SDS011;2169;49.086;9.284;2023-06-10T15:19:07;1.50;;;1.40;;